sensor_id;sensor_type;location;lat;lon;timestamp;P1;durP1;ratioP1;P2;durP2;ratioP2
53545;SDS011;39432;51.902;10.844;2023-04-01T00:00:59;1.48;;;0.50;;
53545;SDS011;39432;51.902;10.844;2023-04-01T00:03:30;3.42;;;1.00;;
53545;SDS011;39432;51.902;10.844;2023-04-01T00:06:00;2.10;;;0.70;;
53545;SDS011;39432;51.902;10.844;2023-04-01T00:08:30;1.58;;;0.40;;
53545;SDS011;39432;51.902;10.844;2023-04-01T00:11:00;1.50;;;0.40;;
53545;SDS011;39432;51.902;10.844;2023-04-01T00:13:30;1.23;;;0.30;;
53545;SDS011;39432;51.902;10.844;2023-04-01T00:16:02;0.77;;;0.30;;
53545;SDS011;39432;51.902;10.844;2023-04-01T00:18:46;0.70;;;0.20;;
53545;SDS011;39432;51.902;10.844;2023-04-01T00:21:16;1.13;;;0.32;;
53545;SDS011;39432;51.902;10.844;2023-04-01T00:23:48;2.50;;;0.40;;
53545;SDS011;39432;51.902;10.844;2023-04-01T00:26:18;1.90;;;0.60;;
53545;SDS011;39432;51.902;10.844;2023-04-01T00:28:49;1.13;;;0.25;;
53545;SDS011;39432;51.902;10.844;2023-04-01T00:31:22;2.28;;;0.40;;
53545;SDS011;39432;51.902;10.844;2023-04-01T00:33:52;1.80;;;0.60;;
53545;SDS011;39432;51.902;10.844;2023-04-01T00:36:22;1.00;;;0.28;;
53545;SDS011;39432;51.902;10.844;2023-04-01T00:38:52;1.08;;;0.32;;
53545;SDS011;39432;51.902;10.844;2023-04-01T00:41:22;2.88;;;0.50;;
53545;SDS011;39432;51.902;10.844;2023-04-01T00:43:52;1.55;;;0.50;;
53545;SDS011;39432;51.902;10.844;2023-04-01T00:46:40;1.15;;;0.50;;
53545;SDS011;39432;51.902;10.844;2023-04-01T00:49:09;2.17;;;0.70;;
53545;SDS011;39432;51.902;10.844;2023-04-01T00:51:39;4.80;;;0.90;;
53545;SDS011;39432;51.902;10.844;2023-04-01T00:54:11;2.78;;;0.60;;
53545;SDS011;39432;51.902;10.844;2023-04-01T00:56:45;3.15;;;0.82;;
53545;SDS011;39432;51.902;10.844;2023-04-01T00:59:18;3.13;;;0.60;;
53545;SDS011;39432;51.902;10.844;2023-04-01T01:01:54;4.88;;;0.82;;
53545;SDS011;39432;51.902;10.844;2023-04-01T01:04:25;3.03;;;0.77;;
53545;SDS011;39432;51.902;10.844;2023-04-01T01:06:59;3.35;;;0.82;;
53545;SDS011;39432;51.902;10.844;2023-04-01T01:09:38;1.95;;;0.60;;
53545;SDS011;39432;51.902;10.844;2023-04-01T01:12:15;3.58;;;0.75;;
53545;SDS011;39432;51.902;10.844;2023-04-01T01:14:52;4.65;;;0.70;;
53545;SDS011;39432;51.902;10.844;2023-04-01T01:17:35;2.38;;;0.82;;
53545;SDS011;39432;51.902;10.844;2023-04-01T01:20:18;1.60;;;0.52;;
53545;SDS011;39432;51.902;10.844;2023-04-01T01:23:10;3.00;;;0.70;;
53545;SDS011;39432;51.902;10.844;2023-04-01T01:25:57;3.15;;;0.88;;
53545;SDS011;39432;51.902;10.844;2023-04-01T01:28:44;2.22;;;0.70;;
53545;SDS011;39432;51.902;10.844;2023-04-01T01:31:24;1.52;;;0.60;;
53545;SDS011;39432;51.902;10.844;2023-04-01T01:34:06;3.50;;;0.68;;
53545;SDS011;39432;51.902;10.844;2023-04-01T01:36:48;1.42;;;0.60;;
53545;SDS011;39432;51.902;10.844;2023-04-01T01:39:24;2.13;;;0.70;;
53545;SDS011;39432;51.902;10.844;2023-04-01T01:41:58;2.20;;;0.57;;
53545;SDS011;39432;51.902;10.844;2023-04-01T01:44:32;1.17;;;0.57;;
53545;SDS011;39432;51.902;10.844;2023-04-01T01:47:04;3.72;;;0.55;;
53545;SDS011;39432;51.902;10.844;2023-04-01T01:49:34;2.75;;;0.50;;
53545;SDS011;39432;51.902;10.844;2023-04-01T01:52:08;1.35;;;0.40;;
53545;SDS011;39432;51.902;10.844;2023-04-01T01:54:46;0.65;;;0.38;;
53545;SDS011;39432;51.902;10.844;2023-04-01T01:57:17;3.30;;;0.70;;
53545;SDS011;39432;51.902;10.844;2023-04-01T01:59:56;4.72;;;0.82;;
53545;SDS011;39432;51.902;10.844;2023-04-01T02:02:38;1.05;;;0.38;;
53545;SDS011;39432;51.902;10.844;2023-04-01T02:05:09;2.38;;;0.60;;
53545;SDS011;39432;51.902;10.844;2023-04-01T02:07:45;1.60;;;0.57;;
53545;SDS011;39432;51.902;10.844;2023-04-01T02:10:21;2.47;;;0.60;;
53545;SDS011;39432;51.902;10.844;2023-04-01T02:12:54;1.80;;;0.40;;
53545;SDS011;39432;51.902;10.844;2023-04-01T02:15:30;2.63;;;0.50;;
53545;SDS011;39432;51.902;10.844;2023-04-01T02:18:04;0.77;;;0.40;;
53545;SDS011;39432;51.902;10.844;2023-04-01T02:20:34;1.30;;;0.50;;
53545;SDS011;39432;51.902;10.844;2023-04-01T02:23:08;1.13;;;0.40;;
53545;SDS011;39432;51.902;10.844;2023-04-01T02:25:39;0.85;;;0.38;;
53545;SDS011;39432;51.902;10.844;2023-04-01T02:28:12;2.28;;;0.70;;
53545;SDS011;39432;51.902;10.844;2023-04-01T02:30:46;1.80;;;0.65;;
53545;SDS011;39432;51.902;10.844;2023-04-01T02:33:19;1.88;;;0.40;;
53545;SDS011;39432;51.902;10.844;2023-04-01T02:35:50;1.63;;;0.40;;
53545;SDS011;39432;51.902;10.844;2023-04-01T02:38:22;0.68;;;0.35;;
53545;SDS011;39432;51.902;10.844;2023-04-01T02:40:57;1.65;;;0.55;;
53545;SDS011;39432;51.902;10.844;2023-04-01T02:43:28;2.30;;;0.60;;
53545;SDS011;39432;51.902;10.844;2023-04-01T02:45:57;1.95;;;0.45;;
53545;SDS011;39432;51.902;10.844;2023-04-01T02:48:28;0.88;;;0.30;;
53545;SDS011;39432;51.902;10.844;2023-04-01T02:50:58;2.28;;;0.43;;
53545;SDS011;39432;51.902;10.844;2023-04-01T02:53:30;2.83;;;0.90;;
53545;SDS011;39432;51.902;10.844;2023-04-01T02:56:00;1.15;;;0.40;;
53545;SDS011;39432;51.902;10.844;2023-04-01T02:58:30;1.92;;;0.88;;
53545;SDS011;39432;51.902;10.844;2023-04-01T03:00:59;1.75;;;0.68;;
53545;SDS011;39432;51.902;10.844;2023-04-01T03:03:29;3.55;;;0.90;;
53545;SDS011;39432;51.902;10.844;2023-04-01T03:06:04;3.25;;;0.90;;
53545;SDS011;39432;51.902;10.844;2023-04-01T03:08:37;1.92;;;0.60;;
53545;SDS011;39432;51.902;10.844;2023-04-01T03:11:08;1.30;;;0.68;;
53545;SDS011;39432;51.902;10.844;2023-04-01T03:13:38;1.95;;;0.45;;
53545;SDS011;39432;51.902;10.844;2023-04-01T03:16:09;3.60;;;0.57;;
53545;SDS011;39432;51.902;10.844;2023-04-01T03:18:39;2.03;;;0.60;;
53545;SDS011;39432;51.902;10.844;2023-04-01T03:21:12;2.08;;;0.40;;
53545;SDS011;39432;51.902;10.844;2023-04-01T03:23:46;2.95;;;0.50;;
53545;SDS011;39432;51.902;10.844;2023-04-01T03:26:16;1.15;;;0.47;;
53545;SDS011;39432;51.902;10.844;2023-04-01T03:28:46;1.60;;;0.40;;
53545;SDS011;39432;51.902;10.844;2023-04-01T03:31:16;1.80;;;0.30;;
53545;SDS011;39432;51.902;10.844;2023-04-01T03:33:52;1.50;;;0.40;;
53545;SDS011;39432;51.902;10.844;2023-04-01T03:36:22;2.78;;;0.43;;
53545;SDS011;39432;51.902;10.844;2023-04-01T03:38:54;2.03;;;0.43;;
53545;SDS011;39432;51.902;10.844;2023-04-01T03:41:35;1.70;;;0.50;;
53545;SDS011;39432;51.902;10.844;2023-04-01T03:44:05;2.65;;;0.30;;
53545;SDS011;39432;51.902;10.844;2023-04-01T03:46:35;0.88;;;0.30;;
53545;SDS011;39432;51.902;10.844;2023-04-01T03:49:06;1.90;;;0.45;;
53545;SDS011;39432;51.902;10.844;2023-04-01T03:51:38;1.40;;;0.30;;
53545;SDS011;39432;51.902;10.844;2023-04-01T03:54:10;3.10;;;0.40;;
53545;SDS011;39432;51.902;10.844;2023-04-01T03:56:42;0.85;;;0.30;;
53545;SDS011;39432;51.902;10.844;2023-04-01T03:59:12;1.13;;;0.60;;
53545;SDS011;39432;51.902;10.844;2023-04-01T04:01:42;0.63;;;0.30;;
53545;SDS011;39432;51.902;10.844;2023-04-01T04:04:12;2.47;;;0.50;;
53545;SDS011;39432;51.902;10.844;2023-04-01T04:06:42;2.35;;;0.30;;
53545;SDS011;39432;51.902;10.844;2023-04-01T04:09:15;0.63;;;0.25;;
53545;SDS011;39432;51.902;10.844;2023-04-01T04:11:44;2.22;;;0.32;;
53545;SDS011;39432;51.902;10.844;2023-04-01T04:14:14;1.13;;;0.40;;
53545;SDS011;39432;51.902;10.844;2023-04-01T04:16:46;1.88;;;0.40;;
53545;SDS011;39432;51.902;10.844;2023-04-01T04:19:15;0.47;;;0.30;;
53545;SDS011;39432;51.902;10.844;2023-04-01T04:21:46;1.17;;;0.40;;
53545;SDS011;39432;51.902;10.844;2023-04-01T04:24:19;1.50;;;0.50;;
53545;SDS011;39432;51.902;10.844;2023-04-01T04:27:03;2.03;;;0.50;;
53545;SDS011;39432;51.902;10.844;2023-04-01T04:29:35;1.50;;;0.68;;
53545;SDS011;39432;51.902;10.844;2023-04-01T04:32:05;1.35;;;0.30;;
53545;SDS011;39432;51.902;10.844;2023-04-01T04:34:35;0.90;;;0.40;;
53545;SDS011;39432;51.902;10.844;2023-04-01T04:37:05;3.13;;;0.50;;
53545;SDS011;39432;51.902;10.844;2023-04-01T04:39:38;1.15;;;0.40;;
53545;SDS011;39432;51.902;10.844;2023-04-01T04:42:08;1.23;;;0.50;;
53545;SDS011;39432;51.902;10.844;2023-04-01T04:44:38;0.68;;;0.32;;
53545;SDS011;39432;51.902;10.844;2023-04-01T04:47:08;2.50;;;0.98;;
53545;SDS011;39432;51.902;10.844;2023-04-01T04:49:38;1.83;;;0.93;;
53545;SDS011;39432;51.902;10.844;2023-04-01T04:52:09;3.13;;;1.27;;
53545;SDS011;39432;51.902;10.844;2023-04-01T04:54:41;3.30;;;1.00;;
53545;SDS011;39432;51.902;10.844;2023-04-01T04:57:11;4.65;;;2.10;;
53545;SDS011;39432;51.902;10.844;2023-04-01T04:59:51;3.88;;;0.77;;
53545;SDS011;39432;51.902;10.844;2023-04-01T05:02:42;2.45;;;0.85;;
53545;SDS011;39432;51.902;10.844;2023-04-01T05:05:12;3.30;;;1.77;;
53545;SDS011;39432;51.902;10.844;2023-04-01T05:07:42;2.47;;;1.20;;
53545;SDS011;39432;51.902;10.844;2023-04-01T05:10:15;2.38;;;0.95;;
53545;SDS011;39432;51.902;10.844;2023-04-01T05:12:45;2.65;;;0.68;;
53545;SDS011;39432;51.902;10.844;2023-04-01T05:15:18;3.17;;;0.80;;
53545;SDS011;39432;51.902;10.844;2023-04-01T05:17:47;3.33;;;0.90;;
53545;SDS011;39432;51.902;10.844;2023-04-01T05:20:17;1.85;;;0.50;;
53545;SDS011;39432;51.902;10.844;2023-04-01T05:22:47;1.45;;;0.50;;
53545;SDS011;39432;51.902;10.844;2023-04-01T05:25:20;1.77;;;0.50;;
53545;SDS011;39432;51.902;10.844;2023-04-01T05:27:50;0.88;;;0.40;;
53545;SDS011;39432;51.902;10.844;2023-04-01T05:30:21;1.90;;;0.65;;
53545;SDS011;39432;51.902;10.844;2023-04-01T05:33:02;1.63;;;0.50;;
53545;SDS011;39432;51.902;10.844;2023-04-01T05:35:32;1.77;;;0.50;;
53545;SDS011;39432;51.902;10.844;2023-04-01T05:38:02;0.70;;;0.35;;
53545;SDS011;39432;51.902;10.844;2023-04-01T05:40:36;1.98;;;0.50;;
53545;SDS011;39432;51.902;10.844;2023-04-01T05:43:06;0.85;;;0.30;;
53545;SDS011;39432;51.902;10.844;2023-04-01T05:45:36;2.05;;;0.50;;
53545;SDS011;39432;51.902;10.844;2023-04-01T05:48:28;1.88;;;0.55;;
53545;SDS011;39432;51.902;10.844;2023-04-01T05:50:58;0.73;;;0.50;;
53545;SDS011;39432;51.902;10.844;2023-04-01T05:53:28;0.85;;;0.45;;
53545;SDS011;39432;51.902;10.844;2023-04-01T05:56:04;2.88;;;1.48;;
53545;SDS011;39432;51.902;10.844;2023-04-01T05:58:39;2.20;;;1.33;;
53545;SDS011;39432;51.902;10.844;2023-04-01T06:01:10;2.15;;;1.25;;
53545;SDS011;39432;51.902;10.844;2023-04-01T06:03:43;1.95;;;1.13;;
53545;SDS011;39432;51.902;10.844;2023-04-01T06:06:13;2.15;;;1.10;;
53545;SDS011;39432;51.902;10.844;2023-04-01T06:08:45;3.42;;;1.20;;
53545;SDS011;39432;51.902;10.844;2023-04-01T06:11:21;0.93;;;0.60;;
53545;SDS011;39432;51.902;10.844;2023-04-01T06:14:02;1.77;;;0.60;;
53545;SDS011;39432;51.902;10.844;2023-04-01T06:16:44;1.45;;;0.70;;
53545;SDS011;39432;51.902;10.844;2023-04-01T06:19:26;2.65;;;0.50;;
53545;SDS011;39432;51.902;10.844;2023-04-01T06:22:08;4.45;;;0.98;;
53545;SDS011;39432;51.902;10.844;2023-04-01T06:25:01;1.33;;;0.60;;
53545;SDS011;39432;51.902;10.844;2023-04-01T06:27:49;1.60;;;0.80;;
53545;SDS011;39432;51.902;10.844;2023-04-01T06:30:33;4.18;;;1.77;;
53545;SDS011;39432;51.902;10.844;2023-04-01T06:36:20;1.90;;;0.85;;
53545;SDS011;39432;51.902;10.844;2023-04-01T06:39:11;12.90;;;5.00;;
53545;SDS011;39432;51.902;10.844;2023-04-01T06:42:02;12.07;;;5.47;;
53545;SDS011;39432;51.902;10.844;2023-04-01T06:44:51;3.20;;;1.58;;
53545;SDS011;39432;51.902;10.844;2023-04-01T06:47:55;3.95;;;0.73;;
53545;SDS011;39432;51.902;10.844;2023-04-01T06:50:52;1.80;;;1.23;;
53545;SDS011;39432;51.902;10.844;2023-04-01T06:53:52;2.63;;;0.98;;
53545;SDS011;39432;51.902;10.844;2023-04-01T06:56:48;1.10;;;0.50;;
53545;SDS011;39432;51.902;10.844;2023-04-01T06:59:25;0.98;;;0.55;;
53545;SDS011;39432;51.902;10.844;2023-04-01T07:02:01;2.58;;;0.40;;
53545;SDS011;39432;51.902;10.844;2023-04-01T07:04:40;1.25;;;0.40;;
53545;SDS011;39432;51.902;10.844;2023-04-01T07:07:14;2.40;;;0.75;;
53545;SDS011;39432;51.902;10.844;2023-04-01T07:09:56;2.58;;;0.80;;
53545;SDS011;39432;51.902;10.844;2023-04-01T07:12:33;2.58;;;0.70;;
53545;SDS011;39432;51.902;10.844;2023-04-01T07:15:15;1.77;;;0.70;;
53545;SDS011;39432;51.902;10.844;2023-04-01T07:17:52;1.70;;;0.55;;
53545;SDS011;39432;51.902;10.844;2023-04-01T07:20:26;1.05;;;0.40;;
53545;SDS011;39432;51.902;10.844;2023-04-01T07:23:02;1.75;;;0.50;;
53545;SDS011;39432;51.902;10.844;2023-04-01T07:25:55;1.02;;;0.60;;
53545;SDS011;39432;51.902;10.844;2023-04-01T07:28:58;2.13;;;0.55;;
53545;SDS011;39432;51.902;10.844;2023-04-01T07:31:42;0.82;;;0.30;;
53545;SDS011;39432;51.902;10.844;2023-04-01T07:34:25;1.70;;;0.50;;
53545;SDS011;39432;51.902;10.844;2023-04-01T07:39:33;0.55;;;0.25;;
53545;SDS011;39432;51.902;10.844;2023-04-01T07:42:15;1.33;;;0.35;;
53545;SDS011;39432;51.902;10.844;2023-04-01T07:44:54;2.67;;;0.30;;
53545;SDS011;39432;51.902;10.844;2023-04-01T07:47:39;0.93;;;0.40;;
53545;SDS011;39432;51.902;10.844;2023-04-01T07:50:24;3.05;;;0.60;;
53545;SDS011;39432;51.902;10.844;2023-04-01T07:53:00;4.35;;;0.43;;
53545;SDS011;39432;51.902;10.844;2023-04-01T07:55:39;3.08;;;0.55;;
53545;SDS011;39432;51.902;10.844;2023-04-01T08:00:48;2.50;;;0.85;;
53545;SDS011;39432;51.902;10.844;2023-04-01T08:03:33;1.23;;;0.50;;
53545;SDS011;39432;51.902;10.844;2023-04-01T08:06:16;0.82;;;0.50;;
53545;SDS011;39432;51.902;10.844;2023-04-01T08:08:56;1.73;;;0.55;;
53545;SDS011;39432;51.902;10.844;2023-04-01T08:11:55;1.17;;;0.60;;
53545;SDS011;39432;51.902;10.844;2023-04-01T08:15:00;1.35;;;0.60;;
53545;SDS011;39432;51.902;10.844;2023-04-01T08:18:11;1.05;;;0.60;;
53545;SDS011;39432;51.902;10.844;2023-04-01T08:20:51;2.10;;;0.45;;
53545;SDS011;39432;51.902;10.844;2023-04-01T08:23:28;0.80;;;0.50;;
53545;SDS011;39432;51.902;10.844;2023-04-01T08:26:02;2.55;;;0.90;;
53545;SDS011;39432;51.902;10.844;2023-04-01T08:28:41;1.60;;;0.80;;
53545;SDS011;39432;51.902;10.844;2023-04-01T08:31:15;1.48;;;0.68;;
53545;SDS011;39432;51.902;10.844;2023-04-01T08:33:48;2.10;;;0.68;;
53545;SDS011;39432;51.902;10.844;2023-04-01T08:36:23;1.13;;;0.57;;
53545;SDS011;39432;51.902;10.844;2023-04-01T08:39:12;0.57;;;0.20;;
53545;SDS011;39432;51.902;10.844;2023-04-01T08:45:07;1.10;;;0.40;;
53545;SDS011;39432;51.902;10.844;2023-04-01T08:47:55;3.92;;;1.60;;
53545;SDS011;39432;51.902;10.844;2023-04-01T08:50:56;1.98;;;0.60;;
53545;SDS011;39432;51.902;10.844;2023-04-01T08:54:03;1.55;;;0.68;;
53545;SDS011;39432;51.902;10.844;2023-04-01T08:56:50;0.65;;;0.30;;
53545;SDS011;39432;51.902;10.844;2023-04-01T09:06:02;1.52;;;0.57;;
53545;SDS011;39432;51.902;10.844;2023-04-01T09:08:55;0.88;;;0.40;;
53545;SDS011;39432;51.902;10.844;2023-04-01T09:11:40;1.98;;;0.50;;
53545;SDS011;39432;51.902;10.844;2023-04-01T09:14:33;1.25;;;0.38;;
53545;SDS011;39432;51.902;10.844;2023-04-01T09:17:42;3.85;;;1.60;;
53545;SDS011;39432;51.902;10.844;2023-04-01T09:20:27;0.30;;;0.28;;
53545;SDS011;39432;51.902;10.844;2023-04-01T09:23:21;1.05;;;0.43;;
53545;SDS011;39432;51.902;10.844;2023-04-01T09:26:08;0.70;;;0.30;;
53545;SDS011;39432;51.902;10.844;2023-04-01T09:28:51;1.02;;;0.40;;
53545;SDS011;39432;51.902;10.844;2023-04-01T09:31:36;1.77;;;0.85;;
53545;SDS011;39432;51.902;10.844;2023-04-01T09:34:40;1.30;;;0.70;;
53545;SDS011;39432;51.902;10.844;2023-04-01T09:37:30;1.98;;;0.75;;
53545;SDS011;39432;51.902;10.844;2023-04-01T09:40:17;1.30;;;0.50;;
53545;SDS011;39432;51.902;10.844;2023-04-01T09:43:03;1.77;;;0.43;;
53545;SDS011;39432;51.902;10.844;2023-04-01T09:45:51;1.27;;;0.43;;
53545;SDS011;39432;51.902;10.844;2023-04-01T09:48:34;1.13;;;0.63;;
53545;SDS011;39432;51.902;10.844;2023-04-01T09:51:15;4.65;;;0.80;;
53545;SDS011;39432;51.902;10.844;2023-04-01T09:54:00;1.67;;;0.50;;
53545;SDS011;39432;51.902;10.844;2023-04-01T10:00:01;1.23;;;0.70;;
53545;SDS011;39432;51.902;10.844;2023-04-01T10:03:05;1.92;;;0.90;;
53545;SDS011;39432;51.902;10.844;2023-04-01T10:12:29;0.28;;;0.20;;
53545;SDS011;39432;51.902;10.844;2023-04-01T10:18:37;2.15;;;0.70;;
53545;SDS011;39432;51.902;10.844;2023-04-01T10:27:40;1.17;;;0.60;;
53545;SDS011;39432;51.902;10.844;2023-04-01T10:30:53;2.17;;;0.90;;
53545;SDS011;39432;51.902;10.844;2023-04-01T10:36:55;1.88;;;0.70;;
53545;SDS011;39432;51.902;10.844;2023-04-01T10:39:49;1.17;;;0.50;;
53545;SDS011;39432;51.902;10.844;2023-04-01T10:43:36;1.63;;;0.68;;
53545;SDS011;39432;51.902;10.844;2023-04-01T10:49:44;1.77;;;0.73;;
53545;SDS011;39432;51.902;10.844;2023-04-01T10:55:37;0.85;;;0.55;;
53545;SDS011;39432;51.902;10.844;2023-04-01T10:59:00;1.35;;;0.40;;
53545;SDS011;39432;51.902;10.844;2023-04-01T11:05:40;0.50;;;0.30;;
53545;SDS011;39432;51.902;10.844;2023-04-01T11:11:44;0.60;;;0.22;;
53545;SDS011;39432;51.902;10.844;2023-04-01T11:17:37;1.05;;;0.20;;
53545;SDS011;39432;51.902;10.844;2023-04-01T11:27:15;2.08;;;0.88;;
53545;SDS011;39432;51.902;10.844;2023-04-01T11:30:20;2.97;;;0.98;;
53545;SDS011;39432;51.902;10.844;2023-04-01T11:32:59;3.50;;;0.75;;
53545;SDS011;39432;51.902;10.844;2023-04-01T11:35:35;4.90;;;1.23;;
53545;SDS011;39432;51.902;10.844;2023-04-01T11:38:19;0.52;;;0.32;;
53545;SDS011;39432;51.902;10.844;2023-04-01T11:40:58;1.05;;;0.30;;
53545;SDS011;39432;51.902;10.844;2023-04-01T11:44:03;0.77;;;0.43;;
53545;SDS011;39432;51.902;10.844;2023-04-01T11:47:09;1.65;;;0.80;;
53545;SDS011;39432;51.902;10.844;2023-04-01T11:49:51;1.50;;;0.40;;
53545;SDS011;39432;51.902;10.844;2023-04-01T11:52:46;0.98;;;0.35;;
53545;SDS011;39432;51.902;10.844;2023-04-01T11:55:28;6.70;;;0.40;;
53545;SDS011;39432;51.902;10.844;2023-04-01T11:58:08;2.38;;;0.52;;
53545;SDS011;39432;51.902;10.844;2023-04-01T12:01:00;1.52;;;0.22;;
53545;SDS011;39432;51.902;10.844;2023-04-01T12:03:47;1.20;;;0.40;;
53545;SDS011;39432;51.902;10.844;2023-04-01T12:06:32;0.77;;;0.47;;
53545;SDS011;39432;51.902;10.844;2023-04-01T12:09:09;0.40;;;0.30;;
53545;SDS011;39432;51.902;10.844;2023-04-01T12:11:50;2.47;;;1.40;;
53545;SDS011;39432;51.902;10.844;2023-04-01T12:14:33;0.65;;;0.20;;
53545;SDS011;39432;51.902;10.844;2023-04-01T12:17:15;0.68;;;0.30;;
53545;SDS011;39432;51.902;10.844;2023-04-01T12:19:59;0.47;;;0.30;;
53545;SDS011;39432;51.902;10.844;2023-04-01T12:22:45;0.20;;;0.20;;
53545;SDS011;39432;51.902;10.844;2023-04-01T12:25:24;3.20;;;0.30;;
53545;SDS011;39432;51.902;10.844;2023-04-01T12:28:08;0.60;;;0.30;;
53545;SDS011;39432;51.902;10.844;2023-04-01T12:30:57;0.75;;;0.15;;
53545;SDS011;39432;51.902;10.844;2023-04-01T12:42:15;3.10;;;1.70;;
53545;SDS011;39432;51.902;10.844;2023-04-01T12:45:02;1.52;;;0.40;;
53545;SDS011;39432;51.902;10.844;2023-04-01T12:48:01;2.00;;;0.30;;
53545;SDS011;39432;51.902;10.844;2023-04-01T12:51:01;1.73;;;0.35;;
53545;SDS011;39432;51.902;10.844;2023-04-01T12:54:04;2.40;;;0.50;;
53545;SDS011;39432;51.902;10.844;2023-04-01T12:56:48;0.75;;;0.43;;
53545;SDS011;39432;51.902;10.844;2023-04-01T13:02:31;0.63;;;0.50;;
53545;SDS011;39432;51.902;10.844;2023-04-01T13:05:15;2.67;;;0.80;;
53545;SDS011;39432;51.902;10.844;2023-04-01T13:08:13;1.15;;;0.40;;
53545;SDS011;39432;51.902;10.844;2023-04-01T13:11:00;0.90;;;0.40;;
53545;SDS011;39432;51.902;10.844;2023-04-01T13:16:57;2.70;;;0.70;;
53545;SDS011;39432;51.902;10.844;2023-04-01T13:19:31;4.03;;;1.63;;
53545;SDS011;39432;51.902;10.844;2023-04-01T13:22:17;39.80;;;19.10;;
53545;SDS011;39432;51.902;10.844;2023-04-01T13:24:57;23.50;;;12.93;;
53545;SDS011;39432;51.902;10.844;2023-04-01T13:27:33;10.20;;;4.95;;
53545;SDS011;39432;51.902;10.844;2023-04-01T13:30:13;6.10;;;2.63;;
53545;SDS011;39432;51.902;10.844;2023-04-01T13:32:55;1.98;;;0.82;;
53545;SDS011;39432;51.902;10.844;2023-04-01T13:35:32;0.95;;;0.50;;
53545;SDS011;39432;51.902;10.844;2023-04-01T13:38:19;2.85;;;1.15;;
53545;SDS011;39432;51.902;10.844;2023-04-01T13:41:05;3.70;;;0.63;;
53545;SDS011;39432;51.902;10.844;2023-04-01T13:43:42;1.98;;;0.50;;
53545;SDS011;39432;51.902;10.844;2023-04-01T13:46:31;1.58;;;0.50;;
53545;SDS011;39432;51.902;10.844;2023-04-01T13:52:18;4.22;;;0.75;;
53545;SDS011;39432;51.902;10.844;2023-04-01T13:55:09;3.63;;;0.50;;
53545;SDS011;39432;51.902;10.844;2023-04-01T13:57:56;1.67;;;0.40;;
53545;SDS011;39432;51.902;10.844;2023-04-01T14:00:42;1.33;;;0.70;;
53545;SDS011;39432;51.902;10.844;2023-04-01T14:03:27;0.75;;;0.50;;
53545;SDS011;39432;51.902;10.844;2023-04-01T14:06:09;0.55;;;0.32;;
53545;SDS011;39432;51.902;10.844;2023-04-01T14:12:03;0.95;;;0.30;;
53545;SDS011;39432;51.902;10.844;2023-04-01T14:14:40;1.02;;;0.50;;
53545;SDS011;39432;51.902;10.844;2023-04-01T14:17:31;0.75;;;0.40;;
53545;SDS011;39432;51.902;10.844;2023-04-01T14:20:25;0.30;;;0.30;;
53545;SDS011;39432;51.902;10.844;2023-04-01T14:29:15;0.80;;;0.40;;
53545;SDS011;39432;51.902;10.844;2023-04-01T14:32:00;1.15;;;0.43;;
53545;SDS011;39432;51.902;10.844;2023-04-01T14:34:42;1.48;;;0.60;;
53545;SDS011;39432;51.902;10.844;2023-04-01T14:37:25;1.80;;;0.55;;
53545;SDS011;39432;51.902;10.844;2023-04-01T14:40:16;1.80;;;0.50;;
53545;SDS011;39432;51.902;10.844;2023-04-01T14:45:55;0.90;;;0.50;;
53545;SDS011;39432;51.902;10.844;2023-04-01T14:48:48;1.42;;;0.50;;
53545;SDS011;39432;51.902;10.844;2023-04-01T14:51:22;1.25;;;0.60;;
53545;SDS011;39432;51.902;10.844;2023-04-01T14:54:02;2.15;;;1.00;;
53545;SDS011;39432;51.902;10.844;2023-04-01T14:56:37;1.50;;;0.85;;
53545;SDS011;39432;51.902;10.844;2023-04-01T14:59:10;2.38;;;0.68;;
53545;SDS011;39432;51.902;10.844;2023-04-01T15:01:46;1.15;;;0.52;;
53545;SDS011;39432;51.902;10.844;2023-04-01T15:10:17;0.70;;;0.40;;
53545;SDS011;39432;51.902;10.844;2023-04-01T15:13:13;1.17;;;0.57;;
53545;SDS011;39432;51.902;10.844;2023-04-01T15:15:48;1.08;;;0.40;;
53545;SDS011;39432;51.902;10.844;2023-04-01T15:18:32;1.30;;;0.50;;
53545;SDS011;39432;51.902;10.844;2023-04-01T15:21:16;1.92;;;0.73;;
53545;SDS011;39432;51.902;10.844;2023-04-01T15:23:56;0.68;;;0.45;;
53545;SDS011;39432;51.902;10.844;2023-04-01T15:26:34;1.60;;;0.50;;
53545;SDS011;39432;51.902;10.844;2023-04-01T15:29:22;2.13;;;0.80;;
53545;SDS011;39432;51.902;10.844;2023-04-01T15:32:00;1.25;;;0.70;;
53545;SDS011;39432;51.902;10.844;2023-04-01T15:34:35;2.28;;;0.75;;
53545;SDS011;39432;51.902;10.844;2023-04-01T15:37:18;2.33;;;0.80;;
53545;SDS011;39432;51.902;10.844;2023-04-01T15:39:57;1.98;;;0.93;;
53545;SDS011;39432;51.902;10.844;2023-04-01T15:42:42;0.98;;;0.60;;
53545;SDS011;39432;51.902;10.844;2023-04-01T15:45:30;0.77;;;0.40;;
53545;SDS011;39432;51.902;10.844;2023-04-01T15:48:10;1.50;;;0.50;;
53545;SDS011;39432;51.902;10.844;2023-04-01T15:51:04;1.13;;;0.45;;
53545;SDS011;39432;51.902;10.844;2023-04-01T15:53:54;1.25;;;0.50;;
53545;SDS011;39432;51.902;10.844;2023-04-01T15:56:42;3.90;;;0.63;;
53545;SDS011;39432;51.902;10.844;2023-04-01T15:59:23;1.70;;;0.63;;
53545;SDS011;39432;51.902;10.844;2023-04-01T16:02:10;1.35;;;0.73;;
53545;SDS011;39432;51.902;10.844;2023-04-01T16:04:48;1.48;;;0.60;;
53545;SDS011;39432;51.902;10.844;2023-04-01T16:07:28;1.80;;;0.50;;
53545;SDS011;39432;51.902;10.844;2023-04-01T16:10:21;1.50;;;0.77;;
53545;SDS011;39432;51.902;10.844;2023-04-01T16:13:12;1.73;;;0.68;;
53545;SDS011;39432;51.902;10.844;2023-04-01T16:15:54;4.20;;;0.50;;
53545;SDS011;39432;51.902;10.844;2023-04-01T16:18:39;1.48;;;0.75;;
53545;SDS011;39432;51.902;10.844;2023-04-01T16:21:22;2.70;;;0.60;;
53545;SDS011;39432;51.902;10.844;2023-04-01T16:24:05;1.23;;;0.52;;
53545;SDS011;39432;51.902;10.844;2023-04-01T16:26:47;1.55;;;0.73;;
53545;SDS011;39432;51.902;10.844;2023-04-01T16:29:24;1.88;;;0.80;;
53545;SDS011;39432;51.902;10.844;2023-04-01T16:32:15;1.40;;;0.70;;
53545;SDS011;39432;51.902;10.844;2023-04-01T16:34:55;3.22;;;0.77;;
53545;SDS011;39432;51.902;10.844;2023-04-01T16:37:33;1.45;;;0.60;;
53545;SDS011;39432;51.902;10.844;2023-04-01T16:40:11;1.38;;;0.63;;
53545;SDS011;39432;51.902;10.844;2023-04-01T16:42:53;2.75;;;1.17;;
53545;SDS011;39432;51.902;10.844;2023-04-01T16:45:35;2.58;;;1.63;;
53545;SDS011;39432;51.902;10.844;2023-04-01T16:50:44;4.05;;;2.28;;
53545;SDS011;39432;51.902;10.844;2023-04-01T16:53:21;3.80;;;2.45;;
53545;SDS011;39432;51.902;10.844;2023-04-01T16:56:03;3.10;;;2.17;;
53545;SDS011;39432;51.902;10.844;2023-04-01T16:58:41;3.88;;;2.72;;
53545;SDS011;39432;51.902;10.844;2023-04-01T17:01:19;4.07;;;2.80;;
53545;SDS011;39432;51.902;10.844;2023-04-01T17:03:57;6.75;;;3.70;;
53545;SDS011;39432;51.902;10.844;2023-04-01T17:06:31;4.95;;;2.95;;
53545;SDS011;39432;51.902;10.844;2023-04-01T17:09:14;5.30;;;3.50;;
53545;SDS011;39432;51.902;10.844;2023-04-01T17:11:56;5.55;;;3.40;;
53545;SDS011;39432;51.902;10.844;2023-04-01T17:14:38;5.57;;;4.20;;
53545;SDS011;39432;51.902;10.844;2023-04-01T17:17:22;4.60;;;3.78;;
53545;SDS011;39432;51.902;10.844;2023-04-01T17:20:07;5.63;;;4.30;;
53545;SDS011;39432;51.902;10.844;2023-04-01T17:22:44;4.63;;;3.57;;
53545;SDS011;39432;51.902;10.844;2023-04-01T17:25:28;5.47;;;3.88;;
53545;SDS011;39432;51.902;10.844;2023-04-01T17:28:10;4.35;;;3.40;;
53545;SDS011;39432;51.902;10.844;2023-04-01T17:30:58;5.00;;;3.72;;
53545;SDS011;39432;51.902;10.844;2023-04-01T17:33:45;4.57;;;3.40;;